sensor_id;sensor_type;location;lat;lon;timestamp;P1;durP1;ratioP1;P2;durP2;ratioP2
28756;SDS011;44294;48.282;14.282;2022-07-04T00:01:09;0.50;;;0.50;;
28756;SDS011;44294;48.282;14.282;2022-07-04T00:03:56;0.50;;;0.50;;
28756;SDS011;44294;48.282;14.282;2022-07-04T00:06:44;0.47;;;0.47;;
28756;SDS011;44294;48.282;14.282;2022-07-04T00:09:32;0.40;;;0.40;;
28756;SDS011;44294;48.282;14.282;2022-07-04T00:12:19;0.50;;;0.50;;
28756;SDS011;44294;48.282;14.282;2022-07-04T00:15:07;0.50;;;0.50;;
28756;SDS011;44294;48.282;14.282;2022-07-04T00:17:54;0.50;;;0.50;;
28756;SDS011;44294;48.282;14.282;2022-07-04T00:20:42;0.50;;;0.50;;
28756;SDS011;44294;48.282;14.282;2022-07-04T00:23:29;0.43;;;0.43;;
28756;SDS011;44294;48.282;14.282;2022-07-04T00:26:17;0.50;;;0.50;;
28756;SDS011;44294;48.282;14.282;2022-07-04T00:29:04;0.50;;;0.50;;
28756;SDS011;44294;48.282;14.282;2022-07-04T00:31:51;0.40;;;0.40;;
28756;SDS011;44294;48.282;14.282;2022-07-04T00:34:39;0.40;;;0.40;;
28756;SDS011;44294;48.282;14.282;2022-07-04T00:37:27;0.40;;;0.40;;
28756;SDS011;44294;48.282;14.282;2022-07-04T00:40:17;0.40;;;0.40;;
28756;SDS011;44294;48.282;14.282;2022-07-04T00:43:04;0.50;;;0.50;;
28756;SDS011;44294;48.282;14.282;2022-07-04T00:45:52;0.50;;;0.50;;
28756;SDS011;44294;48.282;14.282;2022-07-04T00:48:39;0.50;;;0.50;;
28756;SDS011;44294;48.282;14.282;2022-07-04T00:51:27;0.50;;;0.50;;
28756;SDS011;44294;48.282;14.282;2022-07-04T00:54:15;0.50;;;0.50;;
28756;SDS011;44294;48.282;14.282;2022-07-04T00:57:05;0.50;;;0.50;;
28756;SDS011;44294;48.282;14.282;2022-07-04T00:59:52;0.50;;;0.50;;
28756;SDS011;44294;48.282;14.282;2022-07-04T01:02:39;0.50;;;0.50;;
28756;SDS011;44294;48.282;14.282;2022-07-04T01:05:27;0.50;;;0.50;;
28756;SDS011;44294;48.282;14.282;2022-07-04T01:08:14;0.43;;;0.43;;
28756;SDS011;44294;48.282;14.282;2022-07-04T01:11:02;0.50;;;0.50;;
28756;SDS011;44294;48.282;14.282;2022-07-04T01:13:49;0.50;;;0.50;;
28756;SDS011;44294;48.282;14.282;2022-07-04T01:16:37;0.50;;;0.50;;
28756;SDS011;44294;48.282;14.282;2022-07-04T01:19:24;0.50;;;0.50;;
28756;SDS011;44294;48.282;14.282;2022-07-04T01:22:12;0.50;;;0.50;;
28756;SDS011;44294;48.282;14.282;2022-07-04T01:24:59;0.50;;;0.50;;
28756;SDS011;44294;48.282;14.282;2022-07-04T01:27:47;0.50;;;0.50;;
28756;SDS011;44294;48.282;14.282;2022-07-04T01:30:34;0.50;;;0.50;;
28756;SDS011;44294;48.282;14.282;2022-07-04T01:33:22;0.50;;;0.50;;
28756;SDS011;44294;48.282;14.282;2022-07-04T01:36:09;0.50;;;0.50;;
28756;SDS011;44294;48.282;14.282;2022-07-04T01:38:57;0.50;;;0.50;;
28756;SDS011;44294;48.282;14.282;2022-07-04T01:41:45;0.50;;;0.50;;
28756;SDS011;44294;48.282;14.282;2022-07-04T01:44:32;0.50;;;0.50;;
28756;SDS011;44294;48.282;14.282;2022-07-04T01:47:20;0.50;;;0.50;;
28756;SDS011;44294;48.282;14.282;2022-07-04T01:50:08;0.50;;;0.50;;
28756;SDS011;44294;48.282;14.282;2022-07-04T01:52:56;0.50;;;0.50;;
28756;SDS011;44294;48.282;14.282;2022-07-04T01:55:43;0.50;;;0.50;;
28756;SDS011;44294;48.282;14.282;2022-07-04T01:58:30;0.50;;;0.50;;
28756;SDS011;44294;48.282;14.282;2022-07-04T02:01:18;0.50;;;0.50;;
28756;SDS011;44294;48.282;14.282;2022-07-04T02:04:17;0.50;;;0.50;;
28756;SDS011;44294;48.282;14.282;2022-07-04T02:07:04;0.50;;;0.50;;
28756;SDS011;44294;48.282;14.282;2022-07-04T02:09:52;0.50;;;0.50;;
28756;SDS011;44294;48.282;14.282;2022-07-04T02:12:39;0.50;;;0.50;;
28756;SDS011;44294;48.282;14.282;2022-07-04T02:15:45;0.50;;;0.50;;
28756;SDS011;44294;48.282;14.282;2022-07-04T02:18:32;0.50;;;0.50;;
28756;SDS011;44294;48.282;14.282;2022-07-04T02:21:19;0.40;;;0.40;;
28756;SDS011;44294;48.282;14.282;2022-07-04T02:24:07;0.50;;;0.50;;
28756;SDS011;44294;48.282;14.282;2022-07-04T02:26:54;0.40;;;0.40;;
28756;SDS011;44294;48.282;14.282;2022-07-04T02:29:42;0.50;;;0.50;;
28756;SDS011;44294;48.282;14.282;2022-07-04T02:32:29;0.50;;;0.50;;
28756;SDS011;44294;48.282;14.282;2022-07-04T02:35:16;0.50;;;0.50;;
28756;SDS011;44294;48.282;14.282;2022-07-04T02:38:04;0.50;;;0.50;;
28756;SDS011;44294;48.282;14.282;2022-07-04T02:40:51;0.50;;;0.50;;
28756;SDS011;44294;48.282;14.282;2022-07-04T02:43:38;0.60;;;0.60;;
28756;SDS011;44294;48.282;14.282;2022-07-04T02:46:26;0.50;;;0.50;;
28756;SDS011;44294;48.282;14.282;2022-07-04T02:49:13;0.50;;;0.50;;
28756;SDS011;44294;48.282;14.282;2022-07-04T02:52:00;0.50;;;0.50;;
28756;SDS011;44294;48.282;14.282;2022-07-04T02:54:48;0.50;;;0.50;;
28756;SDS011;44294;48.282;14.282;2022-07-04T02:57:35;0.50;;;0.50;;
28756;SDS011;44294;48.282;14.282;2022-07-04T03:00:24;0.50;;;0.50;;
28756;SDS011;44294;48.282;14.282;2022-07-04T03:03:11;0.50;;;0.50;;
28756;SDS011;44294;48.282;14.282;2022-07-04T03:05:58;0.50;;;0.50;;
28756;SDS011;44294;48.282;14.282;2022-07-04T03:08:46;0.50;;;0.50;;
28756;SDS011;44294;48.282;14.282;2022-07-04T03:11:33;0.50;;;0.50;;
28756;SDS011;44294;48.282;14.282;2022-07-04T03:14:20;0.50;;;0.50;;
28756;SDS011;44294;48.282;14.282;2022-07-04T03:17:08;0.50;;;0.50;;
28756;SDS011;44294;48.282;14.282;2022-07-04T03:19:58;0.50;;;0.50;;
28756;SDS011;44294;48.282;14.282;2022-07-04T03:22:44;0.50;;;0.50;;
28756;SDS011;44294;48.282;14.282;2022-07-04T03:25:31;0.50;;;0.50;;
28756;SDS011;44294;48.282;14.282;2022-07-04T03:28:19;0.50;;;0.50;;
28756;SDS011;44294;48.282;14.282;2022-07-04T03:31:06;0.50;;;0.50;;
28756;SDS011;44294;48.282;14.282;2022-07-04T03:33:54;0.50;;;0.50;;
28756;SDS011;44294;48.282;14.282;2022-07-04T03:36:41;0.50;;;0.50;;
28756;SDS011;44294;48.282;14.282;2022-07-04T03:39:28;0.50;;;0.50;;
28756;SDS011;44294;48.282;14.282;2022-07-04T03:42:16;0.40;;;0.40;;
28756;SDS011;44294;48.282;14.282;2022-07-04T03:45:03;0.50;;;0.50;;
28756;SDS011;44294;48.282;14.282;2022-07-04T03:47:52;0.50;;;0.50;;
28756;SDS011;44294;48.282;14.282;2022-07-04T03:50:39;0.50;;;0.50;;
28756;SDS011;44294;48.282;14.282;2022-07-04T03:53:27;0.50;;;0.50;;
28756;SDS011;44294;48.282;14.282;2022-07-04T03:56:14;0.50;;;0.50;;
28756;SDS011;44294;48.282;14.282;2022-07-04T03:59:02;0.50;;;0.50;;
28756;SDS011;44294;48.282;14.282;2022-07-04T04:01:49;0.50;;;0.50;;
28756;SDS011;44294;48.282;14.282;2022-07-04T04:04:36;0.50;;;0.50;;
28756;SDS011;44294;48.282;14.282;2022-07-04T04:07:42;0.40;;;0.40;;
28756;SDS011;44294;48.282;14.282;2022-07-04T04:10:30;0.50;;;0.50;;
28756;SDS011;44294;48.282;14.282;2022-07-04T04:13:18;0.50;;;0.50;;
28756;SDS011;44294;48.282;14.282;2022-07-04T04:16:05;0.40;;;0.40;;
28756;SDS011;44294;48.282;14.282;2022-07-04T04:18:52;0.50;;;0.50;;
28756;SDS011;44294;48.282;14.282;2022-07-04T04:21:40;0.50;;;0.50;;
28756;SDS011;44294;48.282;14.282;2022-07-04T04:24:27;0.50;;;0.50;;
28756;SDS011;44294;48.282;14.282;2022-07-04T04:27:14;0.40;;;0.40;;
28756;SDS011;44294;48.282;14.282;2022-07-04T04:30:02;0.50;;;0.50;;
28756;SDS011;44294;48.282;14.282;2022-07-04T04:32:49;0.40;;;0.40;;
28756;SDS011;44294;48.282;14.282;2022-07-04T04:35:36;0.50;;;0.50;;
28756;SDS011;44294;48.282;14.282;2022-07-04T04:38:24;0.50;;;0.50;;
28756;SDS011;44294;48.282;14.282;2022-07-04T04:41:11;0.50;;;0.50;;
28756;SDS011;44294;48.282;14.282;2022-07-04T04:43:58;0.50;;;0.50;;
28756;SDS011;44294;48.282;14.282;2022-07-04T04:46:46;0.50;;;0.50;;
28756;SDS011;44294;48.282;14.282;2022-07-04T04:49:33;0.50;;;0.50;;
28756;SDS011;44294;48.282;14.282;2022-07-04T04:52:21;0.50;;;0.50;;
28756;SDS011;44294;48.282;14.282;2022-07-04T04:55:08;0.40;;;0.40;;
28756;SDS011;44294;48.282;14.282;2022-07-04T04:57:56;0.50;;;0.50;;
28756;SDS011;44294;48.282;14.282;2022-07-04T05:00:43;0.50;;;0.50;;
28756;SDS011;44294;48.282;14.282;2022-07-04T05:03:30;0.50;;;0.50;;
28756;SDS011;44294;48.282;14.282;2022-07-04T05:06:18;0.47;;;0.47;;
28756;SDS011;44294;48.282;14.282;2022-07-04T05:09:05;0.40;;;0.40;;
28756;SDS011;44294;48.282;14.282;2022-07-04T05:11:52;0.50;;;0.50;;
28756;SDS011;44294;48.282;14.282;2022-07-04T05:14:40;0.60;;;0.60;;
28756;SDS011;44294;48.282;14.282;2022-07-04T05:17:27;0.50;;;0.50;;
28756;SDS011;44294;48.282;14.282;2022-07-04T05:20:14;0.50;;;0.50;;
28756;SDS011;44294;48.282;14.282;2022-07-04T05:23:02;0.60;;;0.60;;
28756;SDS011;44294;48.282;14.282;2022-07-04T05:25:49;0.50;;;0.50;;
28756;SDS011;44294;48.282;14.282;2022-07-04T05:28:37;0.50;;;0.50;;
28756;SDS011;44294;48.282;14.282;2022-07-04T05:31:24;0.50;;;0.50;;
28756;SDS011;44294;48.282;14.282;2022-07-04T05:34:11;0.50;;;0.50;;
28756;SDS011;44294;48.282;14.282;2022-07-04T05:36:59;0.50;;;0.50;;
28756;SDS011;44294;48.282;14.282;2022-07-04T05:39:46;0.50;;;0.50;;
28756;SDS011;44294;48.282;14.282;2022-07-04T05:42:34;0.40;;;0.40;;
28756;SDS011;44294;48.282;14.282;2022-07-04T05:45:22;0.50;;;0.50;;
28756;SDS011;44294;48.282;14.282;2022-07-04T05:48:09;0.50;;;0.50;;
28756;SDS011;44294;48.282;14.282;2022-07-04T05:50:56;0.50;;;0.50;;
28756;SDS011;44294;48.282;14.282;2022-07-04T05:53:44;0.40;;;0.40;;
28756;SDS011;44294;48.282;14.282;2022-07-04T05:56:31;0.40;;;0.40;;
28756;SDS011;44294;48.282;14.282;2022-07-04T05:59:18;0.50;;;0.50;;
28756;SDS011;44294;48.282;14.282;2022-07-04T06:02:06;0.40;;;0.40;;
28756;SDS011;44294;48.282;14.282;2022-07-04T06:04:54;0.40;;;0.40;;
28756;SDS011;44294;48.282;14.282;2022-07-04T06:07:41;0.40;;;0.40;;
28756;SDS011;44294;48.282;14.282;2022-07-04T06:10:29;0.40;;;0.40;;
28756;SDS011;44294;48.282;14.282;2022-07-04T06:13:16;0.40;;;0.40;;
28756;SDS011;44294;48.282;14.282;2022-07-04T06:16:03;0.50;;;0.50;;
28756;SDS011;44294;48.282;14.282;2022-07-04T06:18:51;0.50;;;0.50;;
28756;SDS011;44294;48.282;14.282;2022-07-04T06:21:38;0.40;;;0.40;;
28756;SDS011;44294;48.282;14.282;2022-07-04T06:24:25;0.50;;;0.50;;
28756;SDS011;44294;48.282;14.282;2022-07-04T06:27:13;0.40;;;0.40;;
28756;SDS011;44294;48.282;14.282;2022-07-04T06:30:00;0.40;;;0.40;;
28756;SDS011;44294;48.282;14.282;2022-07-04T06:32:54;0.50;;;0.50;;
28756;SDS011;44294;48.282;14.282;2022-07-04T06:35:42;0.50;;;0.50;;
28756;SDS011;44294;48.282;14.282;2022-07-04T06:38:32;0.47;;;0.47;;
28756;SDS011;44294;48.282;14.282;2022-07-04T06:41:19;0.43;;;0.43;;
28756;SDS011;44294;48.282;14.282;2022-07-04T06:44:07;0.40;;;0.40;;
28756;SDS011;44294;48.282;14.282;2022-07-04T06:46:54;0.40;;;0.40;;
28756;SDS011;44294;48.282;14.282;2022-07-04T06:49:41;0.50;;;0.50;;
28756;SDS011;44294;48.282;14.282;2022-07-04T06:52:29;0.50;;;0.50;;
28756;SDS011;44294;48.282;14.282;2022-07-04T06:55:16;0.40;;;0.40;;
28756;SDS011;44294;48.282;14.282;2022-07-04T06:58:03;0.50;;;0.50;;
28756;SDS011;44294;48.282;14.282;2022-07-04T07:00:51;0.50;;;0.50;;
28756;SDS011;44294;48.282;14.282;2022-07-04T07:03:38;0.50;;;0.50;;
28756;SDS011;44294;48.282;14.282;2022-07-04T07:06:25;0.40;;;0.40;;
28756;SDS011;44294;48.282;14.282;2022-07-04T07:09:13;0.50;;;0.50;;
28756;SDS011;44294;48.282;14.282;2022-07-04T07:12:00;0.50;;;0.50;;
28756;SDS011;44294;48.282;14.282;2022-07-04T07:14:48;0.40;;;0.40;;
28756;SDS011;44294;48.282;14.282;2022-07-04T07:17:35;0.50;;;0.50;;
28756;SDS011;44294;48.282;14.282;2022-07-04T07:20:23;0.40;;;0.40;;
28756;SDS011;44294;48.282;14.282;2022-07-04T07:23:10;0.40;;;0.40;;
28756;SDS011;44294;48.282;14.282;2022-07-04T07:25:57;0.50;;;0.50;;
28756;SDS011;44294;48.282;14.282;2022-07-04T07:28:45;0.40;;;0.40;;
28756;SDS011;44294;48.282;14.282;2022-07-04T07:31:32;0.40;;;0.40;;
28756;SDS011;44294;48.282;14.282;2022-07-04T07:34:20;0.40;;;0.40;;
28756;SDS011;44294;48.282;14.282;2022-07-04T07:37:07;0.40;;;0.40;;
28756;SDS011;44294;48.282;14.282;2022-07-04T07:39:54;0.40;;;0.40;;
28756;SDS011;44294;48.282;14.282;2022-07-04T07:42:42;0.40;;;0.40;;
28756;SDS011;44294;48.282;14.282;2022-07-04T07:45:29;0.40;;;0.40;;
28756;SDS011;44294;48.282;14.282;2022-07-04T07:48:16;0.40;;;0.40;;
28756;SDS011;44294;48.282;14.282;2022-07-04T07:51:04;0.40;;;0.40;;
28756;SDS011;44294;48.282;14.282;2022-07-04T07:53:51;0.40;;;0.40;;
28756;SDS011;44294;48.282;14.282;2022-07-04T07:56:38;0.40;;;0.40;;
28756;SDS011;44294;48.282;14.282;2022-07-04T07:59:26;0.40;;;0.40;;
28756;SDS011;44294;48.282;14.282;2022-07-04T08:02:13;0.40;;;0.40;;
28756;SDS011;44294;48.282;14.282;2022-07-04T08:05:01;0.40;;;0.40;;
28756;SDS011;44294;48.282;14.282;2022-07-04T08:07:48;0.40;;;0.40;;
28756;SDS011;44294;48.282;14.282;2022-07-04T08:10:36;0.40;;;0.40;;
28756;SDS011;44294;48.282;14.282;2022-07-04T08:13:24;0.40;;;0.40;;
28756;SDS011;44294;48.282;14.282;2022-07-04T08:16:11;0.40;;;0.40;;
28756;SDS011;44294;48.282;14.282;2022-07-04T08:18:59;0.40;;;0.40;;
28756;SDS011;44294;48.282;14.282;2022-07-04T08:21:46;0.40;;;0.40;;
28756;SDS011;44294;48.282;14.282;2022-07-04T08:24:34;0.40;;;0.40;;
28756;SDS011;44294;48.282;14.282;2022-07-04T08:27:21;0.40;;;0.40;;
28756;SDS011;44294;48.282;14.282;2022-07-04T08:30:09;0.40;;;0.40;;
28756;SDS011;44294;48.282;14.282;2022-07-04T08:32:57;0.40;;;0.40;;
28756;SDS011;44294;48.282;14.282;2022-07-04T08:35:44;0.40;;;0.40;;
28756;SDS011;44294;48.282;14.282;2022-07-04T08:38:31;0.40;;;0.40;;
28756;SDS011;44294;48.282;14.282;2022-07-04T08:41:19;0.40;;;0.40;;
28756;SDS011;44294;48.282;14.282;2022-07-04T08:44:07;0.40;;;0.40;;
28756;SDS011;44294;48.282;14.282;2022-07-04T08:46:57;0.40;;;0.40;;
28756;SDS011;44294;48.282;14.282;2022-07-04T08:49:57;0.40;;;0.40;;
28756;SDS011;44294;48.282;14.282;2022-07-04T08:52:40;0.40;;;0.40;;
28756;SDS011;44294;48.282;14.282;2022-07-04T08:55:28;0.40;;;0.40;;
28756;SDS011;44294;48.282;14.282;2022-07-04T08:58:34;0.40;;;0.40;;
28756;SDS011;44294;48.282;14.282;2022-07-04T09:01:21;0.40;;;0.40;;
28756;SDS011;44294;48.282;14.282;2022-07-04T09:04:10;0.40;;;0.40;;
28756;SDS011;44294;48.282;14.282;2022-07-04T09:06:57;0.40;;;0.40;;
28756;SDS011;44294;48.282;14.282;2022-07-04T09:09:45;0.40;;;0.40;;
28756;SDS011;44294;48.282;14.282;2022-07-04T09:12:32;0.40;;;0.40;;
28756;SDS011;44294;48.282;14.282;2022-07-04T09:15:20;0.40;;;0.40;;
28756;SDS011;44294;48.282;14.282;2022-07-04T09:18:20;0.40;;;0.40;;
28756;SDS011;44294;48.282;14.282;2022-07-04T09:21:08;0.40;;;0.40;;
28756;SDS011;44294;48.282;14.282;2022-07-04T09:23:56;0.40;;;0.40;;
28756;SDS011;44294;48.282;14.282;2022-07-04T09:26:45;0.30;;;0.30;;
28756;SDS011;44294;48.282;14.282;2022-07-04T09:29:33;0.40;;;0.40;;
28756;SDS011;44294;48.282;14.282;2022-07-04T09:32:37;0.40;;;0.40;;
28756;SDS011;44294;48.282;14.282;2022-07-04T09:35:25;0.40;;;0.40;;
28756;SDS011;44294;48.282;14.282;2022-07-04T09:38:13;0.40;;;0.40;;
28756;SDS011;44294;48.282;14.282;2022-07-04T09:41:02;0.40;;;0.40;;
28756;SDS011;44294;48.282;14.282;2022-07-04T09:44:08;0.40;;;0.40;;
28756;SDS011;44294;48.282;14.282;2022-07-04T09:46:56;0.40;;;0.40;;
28756;SDS011;44294;48.282;14.282;2022-07-04T09:49:57;0.40;;;0.40;;
28756;SDS011;44294;48.282;14.282;2022-07-04T09:55:40;0.40;;;0.40;;
28756;SDS011;44294;48.282;14.282;2022-07-04T09:58:27;0.40;;;0.40;;
28756;SDS011;44294;48.282;14.282;2022-07-04T10:01:18;0.40;;;0.40;;
28756;SDS011;44294;48.282;14.282;2022-07-04T10:04:03;0.40;;;0.40;;
28756;SDS011;44294;48.282;14.282;2022-07-04T10:06:51;0.40;;;0.40;;
28756;SDS011;44294;48.282;14.282;2022-07-04T10:09:39;0.40;;;0.40;;
28756;SDS011;44294;48.282;14.282;2022-07-04T10:12:27;0.40;;;0.40;;
28756;SDS011;44294;48.282;14.282;2022-07-04T10:15:15;0.40;;;0.40;;
28756;SDS011;44294;48.282;14.282;2022-07-04T10:18:02;0.40;;;0.40;;
28756;SDS011;44294;48.282;14.282;2022-07-04T10:20:50;0.40;;;0.40;;
28756;SDS011;44294;48.282;14.282;2022-07-04T10:23:38;0.40;;;0.40;;
28756;SDS011;44294;48.282;14.282;2022-07-04T10:26:26;0.40;;;0.40;;
28756;SDS011;44294;48.282;14.282;2022-07-04T10:29:14;0.40;;;0.40;;
28756;SDS011;44294;48.282;14.282;2022-07-04T10:32:03;0.40;;;0.40;;
28756;SDS011;44294;48.282;14.282;2022-07-04T10:34:52;0.40;;;0.40;;
28756;SDS011;44294;48.282;14.282;2022-07-04T10:37:59;0.40;;;0.40;;
28756;SDS011;44294;48.282;14.282;2022-07-04T10:40:50;0.40;;;0.40;;
28756;SDS011;44294;48.282;14.282;2022-07-04T10:46:37;0.40;;;0.40;;
28756;SDS011;44294;48.282;14.282;2022-07-04T10:49:25;0.40;;;0.40;;
28756;SDS011;44294;48.282;14.282;2022-07-04T10:52:13;0.40;;;0.40;;
28756;SDS011;44294;48.282;14.282;2022-07-04T10:55:05;0.40;;;0.40;;
28756;SDS011;44294;48.282;14.282;2022-07-04T10:57:51;0.30;;;0.30;;
28756;SDS011;44294;48.282;14.282;2022-07-04T11:00:39;0.40;;;0.40;;
28756;SDS011;44294;48.282;14.282;2022-07-04T11:03:27;0.40;;;0.40;;
28756;SDS011;44294;48.282;14.282;2022-07-04T11:09:23;0.40;;;0.40;;
28756;SDS011;44294;48.282;14.282;2022-07-04T11:12:10;0.40;;;0.40;;
28756;SDS011;44294;48.282;14.282;2022-07-04T11:15:00;0.33;;;0.33;;
28756;SDS011;44294;48.282;14.282;2022-07-04T11:17:47;0.40;;;0.40;;
28756;SDS011;44294;48.282;14.282;2022-07-04T11:20:37;0.40;;;0.40;;
28756;SDS011;44294;48.282;14.282;2022-07-04T11:23:24;0.40;;;0.40;;
28756;SDS011;44294;48.282;14.282;2022-07-04T11:26:12;0.30;;;0.30;;
28756;SDS011;44294;48.282;14.282;2022-07-04T11:29:00;0.40;;;0.40;;
28756;SDS011;44294;48.282;14.282;2022-07-04T11:31:48;0.37;;;0.37;;
28756;SDS011;44294;48.282;14.282;2022-07-04T11:34:35;0.40;;;0.40;;
28756;SDS011;44294;48.282;14.282;2022-07-04T11:37:23;0.30;;;0.30;;
28756;SDS011;44294;48.282;14.282;2022-07-04T11:40:11;0.40;;;0.40;;
28756;SDS011;44294;48.282;14.282;2022-07-04T11:43:16;0.40;;;0.40;;
28756;SDS011;44294;48.282;14.282;2022-07-04T11:46:23;0.40;;;0.40;;
28756;SDS011;44294;48.282;14.282;2022-07-04T11:49:10;0.40;;;0.40;;
28756;SDS011;44294;48.282;14.282;2022-07-04T11:51:58;0.40;;;0.40;;
28756;SDS011;44294;48.282;14.282;2022-07-04T11:54:46;0.40;;;0.40;;
28756;SDS011;44294;48.282;14.282;2022-07-04T11:57:35;0.30;;;0.30;;
28756;SDS011;44294;48.282;14.282;2022-07-04T12:00:27;0.40;;;0.40;;
28756;SDS011;44294;48.282;14.282;2022-07-04T12:03:15;0.40;;;0.40;;
28756;SDS011;44294;48.282;14.282;2022-07-04T12:06:02;0.40;;;0.40;;
28756;SDS011;44294;48.282;14.282;2022-07-04T12:08:52;0.40;;;0.40;;
28756;SDS011;44294;48.282;14.282;2022-07-04T12:11:56;0.40;;;0.40;;
28756;SDS011;44294;48.282;14.282;2022-07-04T12:15:01;0.40;;;0.40;;
28756;SDS011;44294;48.282;14.282;2022-07-04T12:17:48;0.40;;;0.40;;
28756;SDS011;44294;48.282;14.282;2022-07-04T12:20:34;0.40;;;0.40;;
28756;SDS011;44294;48.282;14.282;2022-07-04T12:23:22;0.40;;;0.40;;
28756;SDS011;44294;48.282;14.282;2022-07-04T12:26:11;0.40;;;0.40;;
28756;SDS011;44294;48.282;14.282;2022-07-04T12:28:59;0.40;;;0.40;;
28756;SDS011;44294;48.282;14.282;2022-07-04T12:31:50;0.40;;;0.40;;
28756;SDS011;44294;48.282;14.282;2022-07-04T12:34:35;0.40;;;0.40;;
28756;SDS011;44294;48.282;14.282;2022-07-04T12:37:23;0.40;;;0.40;;
28756;SDS011;44294;48.282;14.282;2022-07-04T12:40:10;0.40;;;0.40;;
28756;SDS011;44294;48.282;14.282;2022-07-04T12:42:58;0.40;;;0.40;;
28756;SDS011;44294;48.282;14.282;2022-07-04T12:45:46;0.40;;;0.40;;
28756;SDS011;44294;48.282;14.282;2022-07-04T12:48:34;0.40;;;0.40;;
28756;SDS011;44294;48.282;14.282;2022-07-04T12:51:22;0.40;;;0.40;;
28756;SDS011;44294;48.282;14.282;2022-07-04T12:54:09;0.40;;;0.40;;
28756;SDS011;44294;48.282;14.282;2022-07-04T12:57:08;0.40;;;0.40;;
28756;SDS011;44294;48.282;14.282;2022-07-04T12:59:55;0.40;;;0.40;;
28756;SDS011;44294;48.282;14.282;2022-07-04T13:02:43;0.33;;;0.33;;
28756;SDS011;44294;48.282;14.282;2022-07-04T13:05:30;0.40;;;0.40;;
28756;SDS011;44294;48.282;14.282;2022-07-04T13:08:19;0.40;;;0.40;;
28756;SDS011;44294;48.282;14.282;2022-07-04T13:11:07;0.40;;;0.40;;
28756;SDS011;44294;48.282;14.282;2022-07-04T13:14:12;0.40;;;0.40;;
28756;SDS011;44294;48.282;14.282;2022-07-04T13:16:59;0.40;;;0.40;;
28756;SDS011;44294;48.282;14.282;2022-07-04T13:19:47;0.40;;;0.40;;
28756;SDS011;44294;48.282;14.282;2022-07-04T13:22:34;0.40;;;0.40;;
28756;SDS011;44294;48.282;14.282;2022-07-04T13:25:21;0.40;;;0.40;;
28756;SDS011;44294;48.282;14.282;2022-07-04T13:28:09;0.40;;;0.40;;
28756;SDS011;44294;48.282;14.282;2022-07-04T13:30:56;0.40;;;0.40;;
28756;SDS011;44294;48.282;14.282;2022-07-04T13:33:43;0.40;;;0.40;;
28756;SDS011;44294;48.282;14.282;2022-07-04T13:36:31;0.40;;;0.40;;
28756;SDS011;44294;48.282;14.282;2022-07-04T13:39:18;0.40;;;0.40;;
28756;SDS011;44294;48.282;14.282;2022-07-04T13:42:05;0.40;;;0.40;;
28756;SDS011;44294;48.282;14.282;2022-07-04T13:44:53;0.40;;;0.40;;
28756;SDS011;44294;48.282;14.282;2022-07-04T13:47:40;0.40;;;0.40;;
28756;SDS011;44294;48.282;14.282;2022-07-04T13:50:27;0.40;;;0.40;;
28756;SDS011;44294;48.282;14.282;2022-07-04T13:53:15;0.40;;;0.40;;
28756;SDS011;44294;48.282;14.282;2022-07-04T13:56:02;0.40;;;0.40;;
28756;SDS011;44294;48.282;14.282;2022-07-04T13:58:50;0.40;;;0.40;;
28756;SDS011;44294;48.282;14.282;2022-07-04T14:01:38;0.40;;;0.40;;
28756;SDS011;44294;48.282;14.282;2022-07-04T14:04:25;0.40;;;0.40;;
28756;SDS011;44294;48.282;14.282;2022-07-04T14:07:13;0.40;;;0.40;;
28756;SDS011;44294;48.282;14.282;2022-07-04T14:10:00;0.40;;;0.40;;
28756;SDS011;44294;48.282;14.282;2022-07-04T14:12:48;0.40;;;0.40;;
28756;SDS011;44294;48.282;14.282;2022-07-04T14:15:35;0.40;;;0.40;;
28756;SDS011;44294;48.282;14.282;2022-07-04T14:18:22;0.40;;;0.40;;
28756;SDS011;44294;48.282;14.282;2022-07-04T14:21:09;0.40;;;0.40;;
28756;SDS011;44294;48.282;14.282;2022-07-04T14:23:57;0.40;;;0.40;;
28756;SDS011;44294;48.282;14.282;2022-07-04T14:26:44;0.40;;;0.40;;
28756;SDS011;44294;48.282;14.282;2022-07-04T14:29:31;0.40;;;0.40;;
28756;SDS011;44294;48.282;14.282;2022-07-04T14:32:20;0.40;;;0.40;;
28756;SDS011;44294;48.282;14.282;2022-07-04T14:35:08;0.40;;;0.40;;
28756;SDS011;44294;48.282;14.282;2022-07-04T14:37:55;0.40;;;0.40;;
28756;SDS011;44294;48.282;14.282;2022-07-04T14:40:43;0.40;;;0.40;;
28756;SDS011;44294;48.282;14.282;2022-07-04T14:43:32;0.40;;;0.40;;
28756;SDS011;44294;48.282;14.282;2022-07-04T14:46:19;0.40;;;0.40;;
28756;SDS011;44294;48.282;14.282;2022-07-04T14:49:06;0.40;;;0.40;;
28756;SDS011;44294;48.282;14.282;2022-07-04T14:51:53;0.40;;;0.40;;
28756;SDS011;44294;48.282;14.282;2022-07-04T14:54:42;0.40;;;0.40;;
28756;SDS011;44294;48.282;14.282;2022-07-04T14:57:30;0.50;;;0.50;;
28756;SDS011;44294;48.282;14.282;2022-07-04T15:00:17;0.40;;;0.40;;
28756;SDS011;44294;48.282;14.282;2022-07-04T15:03:04;0.40;;;0.40;;
28756;SDS011;44294;48.282;14.282;2022-07-04T15:05:52;0.50;;;0.50;;
28756;SDS011;44294;48.282;14.282;2022-07-04T15:08:39;0.47;;;0.47;;
28756;SDS011;44294;48.282;14.282;2022-07-04T15:11:27;0.40;;;0.40;;
28756;SDS011;44294;48.282;14.282;2022-07-04T15:14:14;0.40;;;0.40;;
28756;SDS011;44294;48.282;14.282;2022-07-04T15:17:01;0.40;;;0.40;;
28756;SDS011;44294;48.282;14.282;2022-07-04T15:19:49;0.40;;;0.40;;
28756;SDS011;44294;48.282;14.282;2022-07-04T15:22:54;0.40;;;0.40;;
28756;SDS011;44294;48.282;14.282;2022-07-04T15:25:59;0.40;;;0.40;;
28756;SDS011;44294;48.282;14.282;2022-07-04T15:28:47;0.50;;;0.50;;
28756;SDS011;44294;48.282;14.282;2022-07-04T15:31:34;0.50;;;0.50;;
28756;SDS011;44294;48.282;14.282;2022-07-04T15:34:21;0.40;;;0.40;;
28756;SDS011;44294;48.282;14.282;2022-07-04T15:37:09;0.40;;;0.40;;
28756;SDS011;44294;48.282;14.282;2022-07-04T15:39:56;0.40;;;0.40;;
28756;SDS011;44294;48.282;14.282;2022-07-04T15:42:44;0.40;;;0.40;;
28756;SDS011;44294;48.282;14.282;2022-07-04T15:45:31;0.40;;;0.40;;
28756;SDS011;44294;48.282;14.282;2022-07-04T15:48:18;0.40;;;0.40;;
28756;SDS011;44294;48.282;14.282;2022-07-04T15:51:06;0.40;;;0.40;;
28756;SDS011;44294;48.282;14.282;2022-07-04T15:53:53;0.40;;;0.40;;
28756;SDS011;44294;48.282;14.282;2022-07-04T15:56:40;0.40;;;0.40;;
28756;SDS011;44294;48.282;14.282;2022-07-04T15:59:28;0.40;;;0.40;;
28756;SDS011;44294;48.282;14.282;2022-07-04T16:02:15;0.40;;;0.40;;
28756;SDS011;44294;48.282;14.282;2022-07-04T16:05:03;0.40;;;0.40;;
28756;SDS011;44294;48.282;14.282;2022-07-04T16:07:50;0.40;;;0.40;;
28756;SDS011;44294;48.282;14.282;2022-07-04T16:10:37;0.47;;;0.47;;
28756;SDS011;44294;48.282;14.282;2022-07-04T16:13:25;0.40;;;0.40;;
28756;SDS011;44294;48.282;14.282;2022-07-04T16:16:14;0.40;;;0.40;;
28756;SDS011;44294;48.282;14.282;2022-07-04T16:19:01;0.40;;;0.40;;
28756;SDS011;44294;48.282;14.282;2022-07-04T16:21:50;0.40;;;0.40;;
28756;SDS011;44294;48.282;14.282;2022-07-04T16:24:37;0.40;;;0.40;;
28756;SDS011;44294;48.282;14.282;2022-07-04T16:27:27;0.40;;;0.40;;
28756;SDS011;44294;48.282;14.282;2022-07-04T16:30:15;0.50;;;0.50;;
28756;SDS011;44294;48.282;14.282;2022-07-04T16:33:02;0.40;;;0.40;;
28756;SDS011;44294;48.282;14.282;2022-07-04T16:35:49;0.40;;;0.40;;
28756;SDS011;44294;48.282;14.282;2022-07-04T16:38:37;0.40;;;0.40;;
28756;SDS011;44294;48.282;14.282;2022-07-04T16:41:24;0.40;;;0.40;;
28756;SDS011;44294;48.282;14.282;2022-07-04T16:44:11;0.40;;;0.40;;
28756;SDS011;44294;48.282;14.282;2022-07-04T16:46:59;0.40;;;0.40;;